Pagrindinis puslapis
METAR-TAF:

METAR-TAF

Oro uostai :

Kuparuk, Aliaska, Jungtinės Amerikos Valstijos

platuma: 70-19N, ilguma: 149-35W, Aukštis: 20 m

Dabartinis oras

Ataskaita buvo paskelbta 25 minutes, ne 19:47 UTC
Vėjas 13 kt iš Vakarų/Pietvakarių
Temperatūra -8°C
Drėgmė 92%
Slėgis 1015 hPa
Matomumas: 16.1 km
Mažai debesys ne aukštis 4700 ft

METAR: PAKU 281947Z 25013KT 10SM R24/P6000FT FEW047 M08/M09 A2998

Laikas: 12:12 (20:12 UTC)


TAF: trūkstamas

Orai ataskaitas ir orų prognozės (METAR, TAF).

turimą stotys yra geltonos ir raudonos taškus žemėlapyje.

Perkelti pele per norėdami pamatyti stoties vardą.

Tada spustelėkite, norėdami matyti oro stebėjimo ir prognozės.

Norėdami pakeisti žemėlapį: spustelėkite ant žalios mygtukų su juodo kryžiaus žemyn,; žalią mygtuką su brūkšneliu, jei norite nutolinti; arba žalių rodyklių gretimoms žemėlapius.


METAR-TAF: